createdAt,value
2023-03-07T00:01:04.282Z,15.13
2023-03-07T00:03:32.610Z,15.35
2023-03-07T00:06:04.745Z,17.38
2023-03-07T00:08:33.318Z,18.50
2023-03-07T00:11:19.391Z,18.83
2023-03-07T00:13:47.707Z,18.75
2023-03-07T00:16:18.532Z,18.42
2023-03-07T00:18:47.072Z,17.50
2023-03-07T00:21:16.237Z,18.80
2023-03-07T00:23:45.748Z,15.50
2023-03-07T00:26:14.893Z,21.35
2023-03-07T00:28:43.421Z,18.58
2023-03-07T00:31:12.877Z,18.98
2023-03-07T00:33:42.552Z,23.67
2023-03-07T00:36:13.130Z,22.25
2023-03-07T00:38:42.199Z,16.88
2023-03-07T00:41:11.556Z,18.63
2023-03-07T00:43:39.905Z,18.73
2023-03-07T00:46:08.838Z,17.50
2023-03-07T00:48:38.184Z,20.83
2023-03-07T00:51:08.693Z,20.55
2023-03-07T00:53:37.578Z,18.45
2023-03-07T00:56:07.782Z,19.17
2023-03-07T00:58:36.935Z,18.52
2023-03-07T01:01:06.039Z,20.95
2023-03-07T01:03:34.852Z,20.40
2023-03-07T01:06:04.230Z,19.10
2023-03-07T01:08:33.914Z,19.90
2023-03-07T01:11:02.889Z,20.75
2023-03-07T01:13:31.204Z,23.42
2023-03-07T01:16:08.147Z,20.55
2023-03-07T01:18:36.498Z,20.95
2023-03-07T01:21:11.879Z,21.05
2023-03-07T01:23:41.514Z,24.13
2023-03-07T01:26:13.150Z,19.75
2023-03-07T01:28:44.572Z,23.35
2023-03-07T01:31:13.333Z,22.15
2023-03-07T01:33:41.628Z,19.60
2023-03-07T01:36:18.174Z,20.85
2023-03-07T01:38:47.903Z,21.42
2023-03-07T01:41:16.320Z,22.30
2023-03-07T01:43:44.693Z,22.88
2023-03-07T01:46:30.602Z,18.60
2023-03-07T01:49:01.606Z,22.10
2023-03-07T01:51:30.948Z,23.88
2023-03-07T01:54:01.342Z,25.08
2023-03-07T01:56:29.777Z,21.70
2023-03-07T01:58:58.287Z,19.15
2023-03-07T02:01:27.448Z,20.83
2023-03-07T02:03:57.086Z,21.85
2023-03-07T02:06:27.651Z,23.52
2023-03-07T02:08:56.697Z,23.35
2023-03-07T02:11:26.450Z,20.85
2023-03-07T02:13:54.790Z,22.77
2023-03-07T02:16:23.099Z,21.33
2023-03-07T02:18:51.858Z,22.35
2023-03-07T02:21:25.395Z,24.17
2023-03-07T02:23:56.606Z,21.40
2023-03-07T02:26:30.618Z,22.85
2023-03-07T02:29:00.865Z,21.67
2023-03-07T02:31:29.414Z,22.90
2023-03-07T02:33:57.709Z,23.88
2023-03-07T02:36:27.885Z,20.15
2023-03-07T02:38:57.013Z,21.88
2023-03-07T02:41:27.754Z,21.83
2023-03-07T02:43:56.082Z,21.17
2023-03-07T02:46:25.789Z,22.00
2023-03-07T02:48:54.124Z,20.80
2023-03-07T02:51:22.421Z,21.77
2023-03-07T02:53:50.694Z,19.75
2023-03-07T02:56:19.029Z,21.90
2023-03-07T02:58:47.404Z,21.13
2023-03-07T03:01:15.836Z,21.45
2023-03-07T03:03:45.699Z,23.23
2023-03-07T03:06:13.978Z,20.45
2023-03-07T03:08:42.250Z,19.60
2023-03-07T03:11:10.660Z,22.08
2023-03-07T03:13:39.177Z,21.63
2023-03-07T03:16:07.707Z,20.08
2023-03-07T03:18:36.025Z,20.38
2023-03-07T03:21:10.143Z,21.48
2023-03-07T03:23:38.563Z,22.65
2023-03-07T03:26:09.742Z,19.15
2023-03-07T03:28:38.171Z,24.33
2023-03-07T03:31:07.696Z,23.50
2023-03-07T03:33:36.007Z,22.48
2023-03-07T03:36:07.785Z,20.50
2023-03-07T03:38:37.763Z,21.15
2023-03-07T03:41:06.808Z,22.67
2023-03-07T03:43:35.490Z,20.50
2023-03-07T03:46:04.480Z,19.88
2023-03-07T03:48:32.891Z,22.67
2023-03-07T03:51:04.962Z,23.42
2023-03-07T03:53:44.585Z,21.73
2023-03-07T03:56:15.084Z,21.95
2023-03-07T03:58:43.383Z,22.77
2023-03-07T04:01:12.590Z,22.58
2023-03-07T04:03:41.727Z,25.38
2023-03-07T04:06:11.510Z,23.20
2023-03-07T04:08:40.890Z,23.00
2023-03-07T04:11:09.180Z,25.70
2023-03-07T04:13:38.839Z,24.80
2023-03-07T04:16:07.445Z,25.20
2023-03-07T04:18:35.839Z,24.23
2023-03-07T04:21:05.105Z,24.38
2023-03-07T04:23:33.675Z,24.20
2023-03-07T04:26:02.984Z,25.95
2023-03-07T04:28:42.705Z,23.67
2023-03-07T04:31:12.855Z,21.42
2023-03-07T04:33:41.294Z,21.75
2023-03-07T04:36:09.913Z,22.98
2023-03-07T04:38:39.155Z,22.02
2023-03-07T04:41:07.594Z,19.40
2023-03-07T04:43:35.939Z,22.77
2023-03-07T04:46:04.422Z,21.20
2023-03-07T04:48:36.740Z,23.20
2023-03-07T04:51:05.154Z,19.15
2023-03-07T04:53:33.449Z,20.50
2023-03-07T04:56:01.764Z,19.88
2023-03-07T04:58:30.318Z,19.75
2023-03-07T05:00:58.859Z,18.20
2023-03-07T05:03:27.635Z,18.50
2023-03-07T05:05:57.462Z,20.00
2023-03-07T05:08:25.749Z,18.60
2023-03-07T05:10:54.000Z,21.15
2023-03-07T05:13:22.250Z,16.48
2023-03-07T05:15:52.196Z,16.95
2023-03-07T05:18:20.622Z,18.65
2023-03-07T05:20:49.864Z,16.98
2023-03-07T05:23:20.056Z,18.58
2023-03-07T05:25:48.481Z,16.60
2023-03-07T05:28:17.201Z,17.52
2023-03-07T05:30:45.768Z,18.38
2023-03-07T05:33:14.134Z,20.35
2023-03-07T05:35:42.775Z,18.15
2023-03-07T05:38:11.446Z,19.70
2023-03-07T05:40:41.211Z,21.20
2023-03-07T05:43:09.592Z,20.45
2023-03-07T05:45:37.937Z,21.20
2023-03-07T05:48:06.337Z,18.85
2023-03-07T05:50:34.621Z,19.88
2023-03-07T05:53:03.585Z,19.35
2023-03-07T05:55:32.003Z,19.05
2023-03-07T05:58:01.725Z,20.45
2023-03-07T06:00:29.986Z,20.50
2023-03-07T06:02:58.369Z,19.83
2023-03-07T06:05:26.688Z,18.92
2023-03-07T06:07:54.948Z,22.75
2023-03-07T06:10:23.333Z,20.70
2023-03-07T06:12:51.989Z,19.83
2023-03-07T06:15:24.449Z,21.65
2023-03-07T06:17:53.641Z,20.83
2023-03-07T06:20:22.013Z,23.10
2023-03-07T06:22:50.473Z,21.88
2023-03-07T06:25:21.633Z,19.80
2023-03-07T06:27:50.052Z,22.00
2023-03-07T06:30:18.449Z,22.55
2023-03-07T06:32:48.114Z,24.50
2023-03-07T06:35:16.460Z,23.95
2023-03-07T06:37:44.752Z,24.05
2023-03-07T06:40:13.653Z,20.30
2023-03-07T06:42:41.916Z,19.58
2023-03-07T06:45:10.603Z,24.55
2023-03-07T06:47:38.994Z,22.02
2023-03-07T06:50:09.623Z,22.00
2023-03-07T06:52:37.942Z,22.25
2023-03-07T06:55:06.741Z,21.10
2023-03-07T06:57:35.286Z,20.45
2023-03-07T07:00:04.047Z,22.48
2023-03-07T07:02:33.421Z,21.42
2023-03-07T07:05:03.146Z,17.52
2023-03-07T07:07:32.889Z,18.30
2023-03-07T07:10:01.922Z,18.65
2023-03-07T07:12:30.200Z,20.33
2023-03-07T07:15:02.105Z,20.50
2023-03-07T07:17:30.398Z,18.30
2023-03-07T07:19:58.716Z,18.13
2023-03-07T07:22:26.981Z,20.92
2023-03-07T07:24:56.612Z,19.23
2023-03-07T07:27:24.873Z,22.30
2023-03-07T07:29:53.188Z,19.33
2023-03-07T07:32:21.613Z,19.17
2023-03-07T07:34:50.032Z,18.08
2023-03-07T07:37:18.334Z,15.98
2023-03-07T07:39:46.618Z,19.02
2023-03-07T07:42:16.221Z,17.45
2023-03-07T07:44:46.715Z,17.33
2023-03-07T07:47:14.978Z,18.80
2023-03-07T07:49:43.269Z,18.27
2023-03-07T07:52:11.937Z,16.77
2023-03-07T07:54:40.241Z,17.13
2023-03-07T07:57:08.548Z,17.92
2023-03-07T07:59:38.209Z,16.88
2023-03-07T08:02:06.593Z,17.33
2023-03-07T08:04:35.576Z,15.85
2023-03-07T08:07:04.151Z,17.13
2023-03-07T08:09:32.428Z,18.10
2023-03-07T08:12:02.095Z,17.42
2023-03-07T08:14:30.376Z,15.18
2023-03-07T08:17:00.007Z,15.48
2023-03-07T08:19:28.385Z,14.77
2023-03-07T08:21:56.687Z,14.30
2023-03-07T08:24:38.589Z,12.82
2023-03-07T08:27:08.395Z,15.13
2023-03-07T08:29:36.683Z,14.02
2023-03-07T08:32:06.784Z,14.13
2023-03-07T08:34:35.184Z,12.85
2023-03-07T08:37:03.569Z,14.10
2023-03-07T08:39:31.820Z,13.50
2023-03-07T08:42:00.862Z,13.75
2023-03-07T08:44:29.317Z,14.55
2023-03-07T08:46:57.638Z,14.50
2023-03-07T08:49:27.309Z,13.73
2023-03-07T08:51:55.610Z,14.15
2023-03-07T08:54:23.874Z,13.57
2023-03-07T08:56:52.171Z,12.57
2023-03-07T08:59:20.450Z,14.95
2023-03-07T09:01:48.736Z,14.20
2023-03-07T09:04:17.069Z,14.35
2023-03-07T09:06:46.752Z,14.95
2023-03-07T09:09:15.039Z,13.85
2023-03-07T09:11:43.306Z,13.88
2023-03-07T09:14:11.589Z,14.30
2023-03-07T09:16:40.061Z,13.75
2023-03-07T09:19:08.461Z,15.07
2023-03-07T09:21:36.745Z,13.55
2023-03-07T09:24:06.582Z,13.82
2023-03-07T09:26:35.307Z,12.30
2023-03-07T09:29:03.924Z,12.00
2023-03-07T09:31:32.340Z,13.93
2023-03-07T09:34:00.699Z,13.43
2023-03-07T09:36:29.010Z,11.82
2023-03-07T09:38:58.242Z,12.43
2023-03-07T09:41:36.018Z,15.10
2023-03-07T09:44:10.463Z,14.93
2023-03-07T09:46:44.271Z,11.48
2023-03-07T09:51:42.779Z,11.15
2023-03-07T09:54:13.679Z,12.38
2023-03-07T09:56:45.370Z,12.50
2023-03-07T09:59:22.830Z,12.98
2023-03-07T10:01:52.734Z,13.02
2023-03-07T10:04:23.563Z,13.77
2023-03-07T10:06:55.024Z,12.65
2023-03-07T10:09:25.230Z,12.25
2023-03-07T10:12:04.777Z,11.43
2023-03-07T10:14:41.518Z,11.25
2023-03-07T10:17:15.837Z,10.20
2023-03-07T10:19:46.495Z,10.35
2023-03-07T10:22:17.042Z,12.85
2023-03-07T10:25:00.214Z,11.38
2023-03-07T10:27:31.628Z,14.63
2023-03-07T10:30:01.236Z,11.55
2023-03-07T10:32:34.209Z,9.73
2023-03-07T10:35:04.231Z,12.68
2023-03-07T10:37:43.932Z,9.73
2023-03-07T10:40:17.791Z,10.93
2023-03-07T10:42:47.566Z,11.18
2023-03-07T10:45:16.749Z,10.43
2023-03-07T10:47:45.084Z,10.32
2023-03-07T10:50:24.760Z,9.10
2023-03-07T10:52:54.575Z,10.65
2023-03-07T10:55:37.056Z,9.20
2023-03-07T10:58:26.215Z,9.48
2023-03-07T11:01:03.624Z,7.68
2023-03-07T11:03:49.701Z,8.27
2023-03-07T11:06:28.171Z,8.43
2023-03-07T11:08:57.065Z,7.85
2023-03-07T11:11:26.379Z,7.97
2023-03-07T11:14:06.515Z,10.73
2023-03-07T11:16:41.431Z,7.70
2023-03-07T11:19:24.634Z,9.15
2023-03-07T11:21:55.030Z,7.73
2023-03-07T11:24:26.291Z,8.10
2023-03-07T11:26:55.477Z,7.72
2023-03-07T11:29:24.922Z,9.68
2023-03-07T11:32:00.165Z,8.85
2023-03-07T11:34:32.866Z,8.05
2023-03-07T11:37:05.184Z,8.30
2023-03-07T11:39:36.104Z,8.77
2023-03-07T11:42:06.533Z,7.45
2023-03-07T11:44:36.635Z,7.47
2023-03-07T11:47:19.343Z,7.82
2023-03-07T11:49:48.534Z,6.82
2023-03-07T11:52:37.439Z,9.85
2023-03-07T11:55:12.884Z,7.82
2023-03-07T11:57:49.169Z,7.25
2023-03-07T12:00:25.022Z,10.65
2023-03-07T12:03:11.105Z,8.40
2023-03-07T12:05:46.130Z,8.98
2023-03-07T12:08:29.338Z,7.63
2023-03-07T12:11:02.795Z,6.97
2023-03-07T12:13:37.734Z,7.30
2023-03-07T12:16:11.682Z,7.13
2023-03-07T12:18:48.990Z,7.65
2023-03-07T12:21:24.187Z,7.93
2023-03-07T12:23:54.437Z,8.57
2023-03-07T12:26:25.434Z,10.35
2023-03-07T12:28:55.240Z,9.35
2023-03-07T12:31:25.115Z,8.48
2023-03-07T12:33:56.188Z,7.25
2023-03-07T12:36:35.156Z,6.88
2023-03-07T12:39:07.511Z,8.05
2023-03-07T12:41:45.800Z,7.22
2023-03-07T12:44:16.197Z,7.68
2023-03-07T12:46:46.511Z,9.43
2023-03-07T12:49:17.714Z,8.75
2023-03-07T12:51:49.580Z,8.05
2023-03-07T12:54:23.173Z,10.15
2023-03-07T12:56:53.119Z,7.90
2023-03-07T12:59:21.807Z,7.38
2023-03-07T13:01:52.576Z,7.72
2023-03-07T13:04:24.210Z,8.95
2023-03-07T13:06:54.899Z,10.02
2023-03-07T13:09:24.572Z,9.60
2023-03-07T13:12:10.614Z,9.77
2023-03-07T13:14:39.784Z,9.00
2023-03-07T13:17:11.081Z,9.57
2023-03-07T13:19:54.007Z,9.48
2023-03-07T13:22:41.186Z,7.70
2023-03-07T13:25:27.757Z,9.57
2023-03-07T13:27:59.569Z,8.15
2023-03-07T13:30:28.791Z,8.63
2023-03-07T13:32:58.203Z,8.18
2023-03-07T13:35:46.403Z,9.18
2023-03-07T13:38:31.652Z,7.78
2023-03-07T13:41:02.883Z,10.13
2023-03-07T13:43:55.581Z,8.23
2023-03-07T13:46:55.889Z,9.57
2023-03-07T13:49:43.126Z,9.48
2023-03-07T13:52:28.307Z,8.52
2023-03-07T13:54:56.784Z,10.35
2023-03-07T13:57:28.232Z,8.25
2023-03-07T13:59:59.765Z,9.40
2023-03-07T14:02:30.585Z,8.70
2023-03-07T14:05:03.029Z,10.40
2023-03-07T14:07:35.854Z,9.80
2023-03-07T14:10:19.550Z,8.60
2023-03-07T14:13:01.070Z,8.85
2023-03-07T14:15:32.200Z,11.85
2023-03-07T14:18:10.966Z,8.85
2023-03-07T14:20:49.765Z,11.02
2023-03-07T14:23:27.178Z,10.70
2023-03-07T14:25:58.984Z,11.73
2023-03-07T14:28:28.597Z,10.55
2023-03-07T14:30:58.617Z,10.93
2023-03-07T14:33:31.721Z,9.45
2023-03-07T14:36:00.051Z,10.35
2023-03-07T14:38:29.949Z,10.82
2023-03-07T14:41:17.682Z,12.30
2023-03-07T14:43:53.797Z,14.15
2023-03-07T14:46:25.578Z,16.35
2023-03-07T14:49:12.362Z,20.33
2023-03-07T14:51:41.793Z,9.40
2023-03-07T14:54:16.002Z,11.68
2023-03-07T14:56:44.457Z,10.23
2023-03-07T14:59:27.624Z,9.77
2023-03-07T15:01:56.377Z,12.13
2023-03-07T15:04:26.396Z,10.70
2023-03-07T15:06:55.558Z,9.73
2023-03-07T15:09:25.969Z,11.40
2023-03-07T15:11:57.534Z,10.43
2023-03-07T15:14:30.562Z,12.05
2023-03-07T15:17:03.131Z,9.40
2023-03-07T15:19:33.738Z,11.57
2023-03-07T15:22:03.752Z,12.07
2023-03-07T15:24:35.135Z,9.85
2023-03-07T15:27:04.448Z,11.95
2023-03-07T15:29:35.476Z,9.00
2023-03-07T15:32:06.550Z,11.18
2023-03-07T15:34:35.973Z,9.02
2023-03-07T15:37:19.137Z,10.98
2023-03-07T15:39:58.455Z,9.47
2023-03-07T15:42:26.810Z,9.63
2023-03-07T15:44:55.658Z,8.45
2023-03-07T15:47:24.688Z,10.18
2023-03-07T15:49:54.468Z,9.43
2023-03-07T15:52:33.749Z,11.00
2023-03-07T15:55:05.302Z,11.25
2023-03-07T15:57:35.358Z,10.45
2023-03-07T16:00:05.646Z,10.80
2023-03-07T16:02:38.295Z,13.65
2023-03-07T16:05:07.409Z,10.18
2023-03-07T16:07:38.043Z,12.55
2023-03-07T16:10:08.141Z,10.13
2023-03-07T16:12:36.825Z,8.98
2023-03-07T16:15:05.433Z,9.25
2023-03-07T16:17:35.987Z,8.90
2023-03-07T16:20:04.817Z,11.88
2023-03-07T16:22:34.585Z,12.07
2023-03-07T16:25:03.313Z,13.30
2023-03-07T16:27:33.077Z,11.13
2023-03-07T16:30:01.526Z,9.38
2023-03-07T16:32:29.936Z,10.60
2023-03-07T16:34:58.328Z,10.48
2023-03-07T16:37:26.788Z,11.32
2023-03-07T16:39:55.107Z,9.45
2023-03-07T16:42:24.508Z,8.93
2023-03-07T16:44:54.145Z,8.95
2023-03-07T16:47:22.529Z,8.07
2023-03-07T16:49:51.208Z,10.77
2023-03-07T16:52:23.523Z,9.23
2023-03-07T16:54:51.820Z,8.75
2023-03-07T16:57:20.171Z,11.98
2023-03-07T16:59:48.868Z,10.43
2023-03-07T17:02:19.405Z,10.40
2023-03-07T17:04:47.783Z,12.38
2023-03-07T17:07:19.837Z,11.13
2023-03-07T17:09:48.283Z,9.48
2023-03-07T17:12:17.278Z,10.05
2023-03-07T17:14:46.100Z,10.75
2023-03-07T17:17:18.848Z,10.35
2023-03-07T17:19:48.579Z,9.88
2023-03-07T17:22:20.395Z,9.23
2023-03-07T17:24:48.726Z,10.40
2023-03-07T17:27:17.146Z,10.10
2023-03-07T17:29:46.683Z,10.02
2023-03-07T17:32:15.059Z,10.77
2023-03-07T17:34:43.726Z,10.00
2023-03-07T17:37:13.803Z,11.00
2023-03-07T17:39:45.920Z,8.63
2023-03-07T17:42:14.285Z,10.00
2023-03-07T17:44:42.666Z,8.80
2023-03-07T17:47:13.827Z,9.45
2023-03-07T17:49:46.795Z,9.93
2023-03-07T17:52:16.637Z,12.65
2023-03-07T17:54:48.834Z,9.57
2023-03-07T17:57:19.945Z,10.40
2023-03-07T17:59:48.623Z,9.20
2023-03-07T18:02:17.188Z,9.35
2023-03-07T18:04:45.571Z,9.60
2023-03-07T18:07:14.327Z,8.45
2023-03-07T18:09:44.111Z,8.95
2023-03-07T18:12:12.525Z,8.95
2023-03-07T18:14:40.844Z,8.68
2023-03-07T18:17:09.168Z,8.23
2023-03-07T18:19:39.136Z,8.60
2023-03-07T18:22:08.079Z,9.45
2023-03-07T18:24:36.486Z,8.52
2023-03-07T18:27:10.918Z,8.73
2023-03-07T18:29:39.222Z,9.52
2023-03-07T18:32:08.059Z,8.02
2023-03-07T18:34:36.416Z,8.00
2023-03-07T18:37:08.099Z,8.00
2023-03-07T18:39:36.545Z,7.65
2023-03-07T18:42:06.353Z,8.40
2023-03-07T18:44:34.775Z,8.48
2023-03-07T18:47:07.780Z,9.02
2023-03-07T18:49:36.425Z,7.90
2023-03-07T18:52:04.936Z,8.68
2023-03-07T18:54:34.319Z,8.38
2023-03-07T18:57:02.675Z,8.05
2023-03-07T18:59:32.356Z,9.40
2023-03-07T19:02:03.060Z,10.45
2023-03-07T19:04:31.767Z,9.63
2023-03-07T19:07:00.668Z,9.50
2023-03-07T19:09:31.247Z,9.13
2023-03-07T19:12:00.037Z,11.60
2023-03-07T19:14:33.172Z,9.90
2023-03-07T19:17:01.489Z,10.18
2023-03-07T19:19:29.899Z,9.25
2023-03-07T19:21:58.200Z,9.43
2023-03-07T19:24:26.509Z,13.10
2023-03-07T19:26:54.991Z,9.82
2023-03-07T19:29:26.293Z,10.50
2023-03-07T19:31:56.074Z,10.18
2023-03-07T19:34:26.871Z,11.50
2023-03-07T19:36:55.216Z,10.32
2023-03-07T19:39:24.530Z,9.43
2023-03-07T19:41:52.852Z,9.40
2023-03-07T19:44:23.075Z,10.75
2023-03-07T19:46:51.535Z,11.35
2023-03-07T19:49:23.230Z,9.75
2023-03-07T19:51:51.602Z,10.48
2023-03-07T19:54:20.475Z,9.65
2023-03-07T19:56:49.243Z,9.38
2023-03-07T19:59:17.550Z,10.82
2023-03-07T20:01:49.045Z,9.05
2023-03-07T20:04:27.256Z,11.52
2023-03-07T20:06:57.024Z,9.68
2023-03-07T20:09:25.345Z,10.50
2023-03-07T20:11:56.008Z,10.93
2023-03-07T20:14:26.433Z,11.35
2023-03-07T20:16:54.752Z,9.82
2023-03-07T20:19:24.195Z,10.43
2023-03-07T20:21:52.569Z,10.40
2023-03-07T20:24:22.326Z,9.50
2023-03-07T20:26:51.630Z,9.98
2023-03-07T20:29:24.928Z,10.68
2023-03-07T20:31:53.398Z,10.13
2023-03-07T20:34:24.256Z,10.20
2023-03-07T20:36:54.774Z,11.15
2023-03-07T20:39:24.460Z,9.60
2023-03-07T20:41:53.095Z,11.35
2023-03-07T20:44:21.413Z,9.90
2023-03-07T20:46:49.803Z,10.55
2023-03-07T20:49:18.233Z,13.02
2023-03-07T20:51:47.225Z,9.48
2023-03-07T20:54:16.172Z,13.75
2023-03-07T20:56:46.653Z,11.00
2023-03-07T20:59:16.362Z,9.85
2023-03-07T21:01:44.881Z,10.32
2023-03-07T21:04:15.185Z,12.82
2023-03-07T21:06:44.577Z,12.05
2023-03-07T21:09:14.207Z,10.48
2023-03-07T21:11:45.007Z,9.68
2023-03-07T21:14:15.058Z,14.02
2023-03-07T21:16:44.085Z,10.02
2023-03-07T21:19:12.565Z,9.48
2023-03-07T21:21:41.021Z,9.93
2023-03-07T21:24:09.887Z,10.10
2023-03-07T21:26:38.320Z,10.48
2023-03-07T21:29:08.875Z,9.43
2023-03-07T21:31:38.984Z,12.13
2023-03-07T21:34:09.582Z,11.80
2023-03-07T21:36:37.834Z,10.23
2023-03-07T21:39:07.986Z,9.38
2023-03-07T21:41:36.474Z,9.75
2023-03-07T21:44:04.874Z,9.80
2023-03-07T21:46:33.270Z,11.27
2023-03-07T21:49:03.062Z,9.88
2023-03-07T21:51:31.358Z,10.98
2023-03-07T21:53:59.674Z,11.50
2023-03-07T21:56:29.570Z,10.38
2023-03-07T21:59:07.076Z,11.00
2023-03-07T22:04:31.448Z,11.05
2023-03-07T22:06:59.846Z,11.60
2023-03-07T22:09:31.200Z,11.10
2023-03-07T22:12:39.157Z,12.43
2023-03-07T22:15:08.196Z,10.52
2023-03-07T22:17:40.477Z,11.80
2023-03-07T22:20:13.823Z,12.05
2023-03-07T22:22:44.605Z,11.35
2023-03-07T22:25:12.952Z,10.57
2023-03-07T22:27:43.303Z,8.15
2023-03-07T22:30:12.308Z,11.90
2023-03-07T22:32:40.640Z,11.68
2023-03-07T22:35:10.960Z,9.80
2023-03-07T22:37:42.927Z,10.98
2023-03-07T22:40:11.700Z,12.38
2023-03-07T22:42:46.270Z,9.40
2023-03-07T22:45:14.641Z,11.40
2023-03-07T22:47:42.978Z,9.35
2023-03-07T22:50:13.305Z,10.13
2023-03-07T22:52:41.637Z,10.98
2023-03-07T22:55:10.335Z,11.38
2023-03-07T22:57:38.966Z,10.30
2023-03-07T23:00:11.871Z,10.30
2023-03-07T23:02:40.223Z,12.50
2023-03-07T23:05:09.035Z,10.35
2023-03-07T23:07:39.912Z,12.43
2023-03-07T23:10:08.347Z,12.90
2023-03-07T23:12:36.715Z,12.50
2023-03-07T23:15:05.347Z,12.13
2023-03-07T23:17:33.655Z,12.25
2023-03-07T23:20:01.977Z,11.48
2023-03-07T23:22:30.317Z,11.90
2023-03-07T23:24:59.948Z,9.52
2023-03-07T23:27:28.250Z,12.38
2023-03-07T23:29:56.554Z,10.07
2023-03-07T23:32:24.951Z,10.35
2023-03-07T23:34:53.561Z,10.55
2023-03-07T23:37:40.148Z,10.35
2023-03-07T23:40:12.044Z,10.55
2023-03-07T23:42:50.324Z,13.00
2023-03-07T23:45:21.089Z,10.30
2023-03-07T23:47:50.349Z,12.25
2023-03-07T23:50:18.876Z,10.25
2023-03-07T23:52:47.249Z,10.63
2023-03-07T23:55:16.992Z,10.25
2023-03-07T23:57:45.297Z,9.77
